Weather History for Carroll, IA

Change the Weather History Date:

Sunday, July 7, 2013

  Actual Average Record
Temperature  
Mean Temperature 80 °F -  
Max Temperature 89 °F 86 °F 102 °F (1974)
Min Temperature 71 °F 62 °F 44 °F (1960)
Cooling Degree Days 15    
Growing Degree Days 30 (Base 50)    
Moisture  
Dew Point 67 °F    
Average Humidity 63    
Maximum Humidity 89    
Minimum Humidity 49    
Precipitation  
Precipitation 0.00 in - - ()
Sea Level Pressure  
Sea Level Pressure 29.88 in    
Wind  
Wind Speed 10 mph (SSW)    
Max Wind Speed 21 mph    
Max Gust Speed 29 mph    
Visibility 10 miles    
Events      
Averages and records for this station are not official NWS values.
T = Trace of Precipitation, MM = Missing Value Source: NWS Daily Summary

Daily Weather History Graph

Daily Weather History Graph

Search for Another Location

Airport:

Trip Planner

Search our weather history database for the weather conditions in past years. The results will help you decide how hot, cold, wet, or windy it might be!

Date:

Astronomy

Jul. 07, 2013 Rise Set
Actual Time 5:50 AM CDT 8:57 PM CDT
Civil Twilight 5:16 AM CDT 9:30 PM CDT
Nautical Twilight 4:33 AM CDT 10:14 PM CDT
Astronomical Twilight 3:41 AM CDT 11:05 PM CDT
Moon 5:28 AM CDT (7/7) 8:20 PM CDT (7/7)
Length of Visible Light 16h 13m
Length of Day
15h 06m
Waning Crescent, 0% of the Moon is Illuminated
Jul 7
Waning Crescent
Jul 8
New
Jul 15
First Quarter
Jul 22
Full
Jul 29
Last Quarter

Hourly Weather History & Observations

Time (CDT) Temp. Heat Index Dew Point Humidity Pressure Visibility Wind Dir Wind Speed Gust Speed Precip Events Conditions
12:15 AM 75.2 °F - 64.4 °F 69% 29.90 in 10.0 mi South 9.2 mph - N/A   Partly Cloudy
12:35 AM 73.4 °F - 64.4 °F 73% 29.90 in 10.0 mi SSE 6.9 mph - N/A   Clear
12:55 AM 73.4 °F - 64.4 °F 73% 29.90 in 10.0 mi SSE 6.9 mph - N/A   Partly Cloudy
1:15 AM 71.6 °F - 64.4 °F 78% 29.90 in 10.0 mi South 5.8 mph - N/A   Scattered Clouds
1:35 AM 71.6 °F - 64.4 °F 78% 29.90 in 10.0 mi South 6.9 mph - N/A   Mostly Cloudy
1:55 AM 71.6 °F - 64.4 °F 78% 29.90 in 10.0 mi South 6.9 mph - N/A   Mostly Cloudy
2:15 AM 73.4 °F - 64.4 °F 73% 29.90 in 10.0 mi South 6.9 mph - N/A   Mostly Cloudy
2:35 AM 71.6 °F - 64.4 °F 78% 29.89 in 10.0 mi South 6.9 mph - N/A   Overcast
2:55 AM 73.4 °F - 64.4 °F 73% 29.89 in 10.0 mi South 8.1 mph - N/A   Overcast
3:15 AM 75.2 °F - 64.4 °F 69% 29.89 in 10.0 mi South 10.4 mph - N/A   Overcast
3:35 AM 73.4 °F - 64.4 °F 73% 29.89 in 10.0 mi South 10.4 mph - N/A   Overcast
3:55 AM 73.4 °F - 64.4 °F 73% 29.88 in 10.0 mi South 9.2 mph - N/A   Mostly Cloudy
4:15 AM 73.4 °F - 64.4 °F 73% 29.88 in 10.0 mi South 10.4 mph - N/A   Overcast
4:35 AM 75.2 °F - 64.4 °F 69% 29.88 in 10.0 mi South 12.7 mph - N/A   Overcast
4:55 AM 75.2 °F - 62.6 °F 65% 29.87 in 10.0 mi South 15.0 mph 20.7 mph N/A   Overcast
5:15 AM 75.2 °F - 62.6 °F 65% 29.87 in 10.0 mi SSW 13.8 mph 26.5 mph N/A   Mostly Cloudy
5:35 AM 75.2 °F - 60.8 °F 61% 29.87 in 10.0 mi SSW 20.7 mph 27.6 mph N/A   Light Drizzle
5:55 AM 75.2 °F - 60.8 °F 61% 29.87 in 10.0 mi SSW 19.6 mph 26.5 mph N/A   Clear
6:15 AM 75.2 °F - 60.8 °F 61% 29.87 in 10.0 mi SSW 18.4 mph 25.3 mph N/A   Clear
6:35 AM 75.2 °F - 60.8 °F 61% 29.88 in 10.0 mi SSW 16.1 mph 25.3 mph N/A   Light Drizzle
6:55 AM 75.2 °F - 60.8 °F 61% 29.87 in 10.0 mi SSW 18.4 mph 24.2 mph N/A   Clear
7:15 AM 75.2 °F - 60.8 °F 61% 29.88 in 10.0 mi SSW 15.0 mph 25.3 mph N/A   Clear
7:35 AM 75.2 °F - 62.6 °F 65% 29.88 in 10.0 mi SSW 15.0 mph - N/A   Clear
7:55 AM 75.2 °F - 62.6 °F 65% 29.88 in 10.0 mi SSW 12.7 mph 19.6 mph N/A   Clear
8:15 AM 77.0 °F - 62.6 °F 61% 29.89 in - SSW 15.0 mph - N/A   Clear
8:35 AM 77.0 °F - 64.4 °F 65% 29.88 in 10.0 mi SSW 16.1 mph - N/A   Clear
8:55 AM 78.8 °F - 64.4 °F 61% 29.87 in 10.0 mi SW 18.4 mph 26.5 mph N/A   Clear
9:15 AM 80.6 °F 82.3 °F 64.4 °F 58% 29.87 in 10.0 mi SSW 19.6 mph - N/A   Light Drizzle
9:35 AM 80.6 °F 82.3 °F 64.4 °F 58% 29.87 in 10.0 mi SW 18.4 mph 28.8 mph N/A   Clear
9:55 AM 82.4 °F 84.6 °F 66.2 °F 58% 29.87 in 10.0 mi SW 20.7 mph - N/A   Light Drizzle
10:15 AM 82.4 °F 84.6 °F 66.2 °F 58% 29.87 in 10.0 mi SW 15.0 mph 26.5 mph N/A   Light Drizzle
10:35 AM 84.2 °F 86.6 °F 66.2 °F 55% 29.87 in 10.0 mi SW 19.6 mph 26.5 mph N/A   Light Drizzle
10:55 AM 84.2 °F 86.6 °F 66.2 °F 55% 29.87 in 10.0 mi SW 19.6 mph - N/A   Clear
11:15 AM 84.2 °F 86.6 °F 66.2 °F 55% 29.87 in 10.0 mi SW 16.1 mph 25.3 mph N/A   Light Drizzle
11:35 AM 84.2 °F 86.6 °F 66.2 °F 55% 29.87 in 10.0 mi SW 16.1 mph 23.0 mph N/A   Clear
11:55 AM 86.0 °F 88.2 °F 66.2 °F 51% 29.88 in 10.0 mi SW 16.1 mph - N/A   Clear
12:15 PM 86.0 °F 89.4 °F 68.0 °F 55% 29.88 in 10.0 mi SW 11.5 mph 19.6 mph N/A   Clear
12:35 PM 86.0 °F 89.4 °F 68.0 °F 55% 29.88 in 10.0 mi SW 11.5 mph - N/A   Clear
12:55 PM 86.0 °F 88.2 °F 66.2 °F 51% 29.88 in 10.0 mi SW 12.7 mph - N/A   Clear
1:15 PM 86.0 °F 89.4 °F 68.0 °F 55% 29.88 in 10.0 mi SW 12.7 mph - N/A   Clear
1:35 PM 86.0 °F 89.4 °F 68.0 °F 55% 29.88 in 10.0 mi WSW 10.4 mph - N/A   Clear
1:55 PM 87.8 °F 91.4 °F 68.0 °F 52% 29.88 in 10.0 mi WSW 12.7 mph - N/A   Clear
2:15 PM 87.8 °F 91.4 °F 68.0 °F 52% 29.88 in 10.0 mi South 12.7 mph - N/A   Clear
2:35 PM 86.0 °F 89.4 °F 68.0 °F 55% 29.88 in 10.0 mi SW 11.5 mph - N/A   Partly Cloudy
2:55 PM 87.8 °F 91.4 °F 68.0 °F 52% 29.88 in 10.0 mi SSW 11.5 mph 17.3 mph N/A   Partly Cloudy
3:15 PM 89.6 °F 94.7 °F 69.8 °F 52% 29.88 in 10.0 mi SW 10.4 mph 16.1 mph N/A   Partly Cloudy
3:35 PM 87.8 °F 91.4 °F 68.0 °F 52% 29.88 in 10.0 mi South 12.7 mph - N/A   Partly Cloudy
3:55 PM 87.8 °F 91.4 °F 68.0 °F 52% 29.87 in 10.0 mi SW 11.5 mph - N/A   Partly Cloudy
4:15 PM 87.8 °F 91.4 °F 68.0 °F 52% 29.87 in 10.0 mi SW 10.4 mph - N/A   Clear
4:35 PM 89.6 °F 93.4 °F 68.0 °F 49% 29.87 in 10.0 mi SSW 17.3 mph - N/A   Partly Cloudy
4:55 PM 87.8 °F 90.4 °F 66.2 °F 49% 29.87 in 10.0 mi SW 10.4 mph 16.1 mph N/A   Partly Cloudy
5:15 PM 87.8 °F 91.4 °F 68.0 °F 52% 29.87 in 10.0 mi SSW 10.4 mph - N/A   Clear
5:35 PM 87.8 °F 91.4 °F 68.0 °F 52% 29.87 in 10.0 mi SSW 10.4 mph - N/A   Clear
5:55 PM 87.8 °F 91.4 °F 68.0 °F 52% 29.86 in 10.0 mi SSW 11.5 mph 17.3 mph N/A   Clear
6:15 PM 87.8 °F 90.4 °F 66.2 °F 49% 29.87 in 10.0 mi SSW 11.5 mph - N/A   Clear
6:35 PM 87.8 °F 91.4 °F 68.0 °F 52% 29.86 in 10.0 mi SSW 8.1 mph - N/A   Clear
6:55 PM 87.8 °F 91.4 °F 68.0 °F 52% 29.86 in 10.0 mi South 5.8 mph - N/A   Clear
7:15 PM 86.0 °F 90.4 °F 69.8 °F 58% 29.87 in 10.0 mi South 5.8 mph - N/A   Clear
7:35 PM 86.0 °F 90.4 °F 69.8 °F 58% 29.86 in 10.0 mi South 4.6 mph - N/A   Clear
7:55 PM 84.2 °F 88.4 °F 69.8 °F 62% 29.87 in 10.0 mi Calm Calm - N/A   Clear
8:15 PM 84.2 °F 88.4 °F 69.8 °F 62% 29.87 in 10.0 mi Calm Calm - N/A   Clear
8:35 PM 84.2 °F 89.6 °F 71.6 °F 66% 29.88 in 10.0 mi SSW 3.5 mph - N/A   Clear
8:55 PM 82.4 °F 87.2 °F 71.6 °F 70% 29.88 in 10.0 mi SSW 3.5 mph - N/A   Clear
9:15 PM 82.4 °F 87.2 °F 71.6 °F 70% 29.89 in 9.0 mi Calm Calm - N/A   Clear
9:35 PM 80.6 °F 85.4 °F 73.4 °F 79% 29.89 in 8.0 mi Calm Calm - N/A   Clear
9:55 PM 80.6 °F 85.4 °F 73.4 °F 79% 29.90 in 10.0 mi Calm Calm - N/A   Clear
10:15 PM 78.8 °F - 73.4 °F 83% 29.90 in 9.0 mi Calm Calm - N/A   Clear
10:35 PM 77.0 °F - 73.4 °F 89% 29.91 in 9.0 mi Calm Calm - N/A   Clear
10:55 PM 77.0 °F - 73.4 °F 89% 29.93 in 10.0 mi NW 6.9 mph - N/A   Mostly Cloudy
11:15 PM 78.8 °F - 71.6 °F 78% 29.93 in 10.0 mi West 5.8 mph - N/A   Overcast
11:35 PM 78.8 °F - 71.6 °F 78% 29.92 in 9.0 mi Calm Calm - N/A   Mostly Cloudy
11:55 PM 77.0 °F - 71.6 °F 83% 29.92 in 10.0 mi Calm Calm - N/A   Clear